Portada
METAR-TAF:

METAR-TAF

Aeroports :

Nàltxik, Rússia

latitud: 43-30-46N, longitud: 043-38-12E, altitud: 445 m

Observació

L'informe es va fer fa 32 minuts, a les 21:00 UTC
Vent 2 kt del Oest/Nord-Oest
Temperatura 19°C
Humitat 88%
Pressió 1011 hPa
Visibilitat 10 km o més
Núvols disperses , Cumulonimbus.

METAR: URMN 182100Z 30001MPS 9999 SCT///CB 19/17 Q1011 R24/////// NOSIG RMK QFE722

Hora: 00:32 (21:32 UTC)

Pronòstic

L'informe es va fer fa 1 hora i 32 minuts, a les 20:00 UTC
Pronòstic vàlid del 18 a les 21 UTC al 19 a les 06 UTC
Vent 6 kt del Oest/Sud-Oest amb ràfegues de 16 kt
Visibilitat 10 km o més
Núvols disperses a una alçada de 2000 ft, Cumulonimbus.
Temporalment
l' 18 a les 21 UTC al 19 a les 03 UTC
Visibilitat: 3100 m
Núvols disperses a una alçada de 1100 ft
Cel ennuvolat a una alçada de 2000 ft, Cumulonimbus.
xàfecs de pluja

TAF: URMN 182000Z 1821/1906 24003G08MPS 9999 SCT020CB TEMPO 1821/1903 3100 -SHRA SCT011 BKN020CB

Observacions i pronòstics meteorològics de més de 4000 aeroports (METAR i TAF).

Les estacions disponibles són els punts grocs i vermells al mapa.

Posi el ratolí al punt desitjat per veure el nom de l'estació.

Feu clic per veure les observacions i els pronòstics meteorològics.

Per canviar el mapa: feu clic els botons verds amb una creu de color negre per apropar; al botó verd amb un guió per allunyar la imatge; o en les fletxes verdes per a mapes adjacents.


METAR-TAF: